UIL weather

Quillayute Airport
Quillayute, Washington, United States

Public forecast

Using degrees Fahrenheit for public forecast. Weather courtesy of forecast.io.

Current aviation weather report (METAR) for Quillayute Airport

Retrieved 2020/06/06 17:17 UTC (19 minutes ago):

KUIL 061717Z AUTO 21004KT 10SM SCT013 BKN033 OVC090 12/11 A2978

Closest aviation forecast (TAF) to Quillayute Airport

Closest forecast is William R Fairchild International Airport, 44.1 nm (81.6 km) ENE. Retrieved 2020/06/06 12:24 UTC (5 hours ago):

TAF KCLM 061121Z 0612/0712 27005KT P6SM BKN070 FM062000 32006KT 5SM -SHRA SCT025 OVC050 FM070200 31009KT P6SM BKN050 OVC250 FM071000 27005KT P6SM OVC050